Terminal Aerodrome Forecast
Issued by NWS

Home | Current Version | Previous Version | Text Only | Print | Product List | Glossary On
Versions: 1 2 3 4 5 6 7 8 9 10 11 12 13 14 15 16
665
FTAK31 PAJN 030527
TAFAJN
TAF
PAJN 030527Z 0306/0406 VRB05KT P6SM -SHRA FEW005 BKN035 OVC060
     FM030900 30003KT 6SM BR FEW005 BKN060
     FM031800 24008KT P6SM BKN080
     FM040300 VRB06KT P6SM VCSH SCT050 BKN060=

USA.gov is the U.S. government's official web portal to all federal, state and local government web resources and services.